TimeCDT,TemperatureF,Dew PointF,Humidity,Sea Level PressureIn,VisibilityMPH,Wind Direction,Wind SpeedMPH,Gust SpeedMPH,PrecipitationIn,Events,Conditions,WindDirDegrees,DateUTC
12:15 AM,77.7,76.3,95,30.04,10.0,South,3.5,-,N/A,,Clear,180,2013-08-29 05:15:00
12:35 AM,78.4,75.4,90,30.05,10.0,Calm,Calm,-,N/A,,Clear,0,2013-08-29 05:35:00
12:55 AM,76.6,75.9,98,30.05,10.0,Calm,Calm,-,N/A,,Clear,0,2013-08-29 05:55:00
1:15 AM,76.1,76.1,100,30.05,10.0,Calm,Calm,-,N/A,,Clear,0,2013-08-29 06:15:00
1:35 AM,76.1,76.1,100,30.05,10.0,Calm,Calm,-,N/A,,Clear,0,2013-08-29 06:35:00
1:55 AM,76.1,76.1,100,30.04,10.0,Calm,Calm,-,N/A,,Clear,0,2013-08-29 06:55:00
2:15 AM,76.1,76.1,100,30.04,10.0,Calm,Calm,-,N/A,,Clear,0,2013-08-29 07:15:00
2:35 AM,76.1,-9999,N/A,30.04,10.0,Calm,Calm,-,N/A,,Clear,0,2013-08-29 07:35:00
2:55 AM,76.1,76.1,100,30.04,10.0,Calm,Calm,-,N/A,,Clear,0,2013-08-29 07:55:00
3:15 AM,76.1,76.1,100,30.04,10.0,Calm,Calm,-,N/A,,Clear,0,2013-08-29 08:15:00
3:35 AM,75.6,75.6,100,30.05,10.0,Calm,Calm,-,N/A,,Clear,0,2013-08-29 08:35:00
3:55 AM,-9999,-9999,N/A,30.05,10.0,Calm,Calm,-,N/A,,Clear,0,2013-08-29 08:55:00
4:15 AM,75.9,75.9,100,30.04,10.0,Calm,Calm,-,N/A,,Clear,0,2013-08-29 09:15:00
4:35 AM,76.1,76.1,100,30.04,10.0,Calm,Calm,-,N/A,,Clear,0,2013-08-29 09:35:00
4:55 AM,75.4,75.4,100,30.05,10.0,Calm,Calm,-,N/A,,Clear,0,2013-08-29 09:55:00
5:15 AM,73.4,-9999,N/A,30.05,10.0,Calm,Calm,-,N/A,,Clear,0,2013-08-29 10:15:00
5:35 AM,73.4,-9999,N/A,30.05,10.0,Calm,Calm,-,N/A,,Clear,0,2013-08-29 10:35:00
5:55 AM,74.5,74.7,100,30.05,10.0,Calm,Calm,-,N/A,,Clear,0,2013-08-29 10:55:00
6:15 AM,73.9,-9999,N/A,30.05,10.0,Calm,Calm,-,N/A,,Clear,0,2013-08-29 11:15:00
6:35 AM,75.6,75.6,100,30.06,10.0,Calm,Calm,-,N/A,,Clear,0,2013-08-29 11:35:00
6:55 AM,73.0,-9999,N/A,30.06,10.0,Calm,Calm,-,N/A,,Scattered Clouds,0,2013-08-29 11:55:00
7:15 AM,73.8,-9999,N/A,30.07,10.0,Calm,Calm,-,N/A,,Scattered Clouds,0,2013-08-29 12:15:00
7:35 AM,75.4,75.6,100,30.07,10.0,Calm,Calm,-,N/A,,Scattered Clouds,0,2013-08-29 12:35:00
7:55 AM,76.1,76.1,100,30.07,10.0,Calm,Calm,-,N/A,,Scattered Clouds,0,2013-08-29 12:55:00
8:15 AM,77.0,76.6,99,30.07,10.0,South,3.5,-,N/A,,Mostly Cloudy,180,2013-08-29 13:15:00
8:35 AM,78.4,75.2,90,30.07,10.0,South,8.1,-,N/A,,Scattered Clouds,190,2013-08-29 13:35:00
8:55 AM,80.6,74.1,81,30.07,10.0,SSW,6.9,-,N/A,,Clear,210,2013-08-29 13:55:00
9:15 AM,81.0,72.9,76,30.07,10.0,SSW,6.9,-,N/A,,Clear,210,2013-08-29 14:15:00
9:35 AM,82.2,71.1,69,30.07,10.0,SSW,6.9,-,N/A,,Clear,210,2013-08-29 14:35:00
9:55 AM,83.5,70.9,66,30.07,10.0,SSW,9.2,-,N/A,,Clear,210,2013-08-29 14:55:00
10:15 AM,84.4,70.5,63,30.07,10.0,SSW,10.4,-,N/A,,Clear,210,2013-08-29 15:15:00
10:35 AM,86.4,70.5,59,30.07,10.0,SW,10.4,-,N/A,,Clear,220,2013-08-29 15:35:00
10:55 AM,89.1,72.3,58,30.07,10.0,SW,11.5,-,N/A,,Clear,230,2013-08-29 15:55:00
11:15 AM,90.5,72.1,55,30.07,10.0,SW,11.5,-,N/A,,Clear,220,2013-08-29 16:15:00
11:35 AM,91.0,72.7,55,30.07,10.0,SW,9.2,-,N/A,,Clear,220,2013-08-29 16:35:00
12:15 PM,91.0,71.2,52,30.06,10.0,SSW,6.9,-,N/A,,Clear,200,2013-08-29 17:15:00
12:55 PM,91.4,68.5,47,30.05,10.0,SW,9.2,-,N/A,,Clear,220,2013-08-29 17:55:00
1:15 PM,92.7,67.8,44,30.04,10.0,SW,8.1,-,N/A,,Clear,230,2013-08-29 18:15:00
1:35 PM,93.0,68.0,44,30.04,10.0,SW,9.2,-,N/A,,Clear,220,2013-08-29 18:35:00
1:55 PM,94.8,67.6,41,30.04,10.0,WSW,6.9,-,N/A,,Clear,240,2013-08-29 18:55:00
2:15 PM,94.1,66.9,41,30.03,10.0,SSW,8.1,-,N/A,,Clear,210,2013-08-29 19:15:00
2:35 PM,93.4,68.4,44,30.03,10.0,West,4.6,-,N/A,,Clear,260,2013-08-29 19:35:00
2:55 PM,94.1,68.0,42,30.02,10.0,WNW,4.6,-,N/A,,Clear,290,2013-08-29 19:55:00
3:15 PM,95.5,69.4,42,30.02,10.0,West,5.8,-,N/A,,Clear,280,2013-08-29 20:15:00
3:35 PM,96.1,69.3,42,30.01,10.0,WSW,4.6,-,N/A,,Clear,250,2013-08-29 20:35:00
3:55 PM,96.1,68.7,41,30.01,10.0,SW,6.9,-,N/A,,Clear,220,2013-08-29 20:55:00
4:15 PM,96.1,68.2,40,30.00,10.0,WSW,5.8,-,N/A,,Clear,240,2013-08-29 21:15:00
4:35 PM,96.1,68.0,40,30.00,10.0,SW,8.1,-,N/A,,Clear,220,2013-08-29 21:35:00
4:55 PM,96.1,68.5,41,29.99,10.0,WSW,4.6,-,N/A,,Clear,240,2013-08-29 21:55:00
5:15 PM,95.7,67.8,40,29.99,10.0,SW,5.8,-,N/A,,Clear,220,2013-08-29 22:15:00
5:35 PM,92.5,68.7,46,29.99,10.0,SW,4.6,-,N/A,,Clear,220,2013-08-29 22:35:00
5:55 PM,91.2,69.3,48,29.99,10.0,SW,4.6,-,N/A,,Clear,230,2013-08-29 22:55:00
6:15 PM,91.0,70.9,51,29.99,10.0,SW,4.6,-,N/A,,Clear,220,2013-08-29 23:15:00
6:35 PM,91.0,73.9,57,29.99,10.0,Calm,Calm,-,N/A,,Clear,0,2013-08-29 23:35:00
6:55 PM,91.0,73.2,56,29.99,10.0,SSW,3.5,-,N/A,,Clear,200,2013-08-29 23:55:00
7:15 PM,90.0,74.1,59,29.99,10.0,Calm,Calm,-,N/A,,Clear,0,2013-08-30 00:15:00
7:35 PM,86.5,73.2,64,29.99,10.0,SSW,4.6,-,N/A,,Clear,200,2013-08-30 00:35:00
7:55 PM,85.3,72.3,65,29.99,10.0,South,3.5,-,N/A,,Clear,190,2013-08-30 00:55:00
8:15 PM,84.0,72.7,69,30.00,10.0,South,3.5,-,N/A,,Clear,190,2013-08-30 01:15:00
8:35 PM,83.3,73.0,71,30.00,10.0,South,3.5,-,N/A,,Clear,180,2013-08-30 01:35:00
8:55 PM,82.6,72.7,72,30.00,10.0,South,5.8,-,N/A,,Clear,180,2013-08-30 01:55:00
9:15 PM,82.4,72.0,71,30.00,10.0,South,5.8,-,N/A,,Clear,180,2013-08-30 02:15:00
9:35 PM,82.4,72.0,71,30.00,10.0,South,4.6,-,N/A,,Clear,180,2013-08-30 02:35:00
9:55 PM,81.7,72.5,74,30.00,10.0,South,4.6,-,N/A,,Clear,190,2013-08-30 02:55:00
10:15 PM,81.0,72.1,74,30.00,10.0,South,5.8,-,N/A,,Clear,190,2013-08-30 03:15:00
10:35 PM,81.0,73.0,77,30.00,10.0,SSW,4.6,-,N/A,,Clear,200,2013-08-30 03:35:00
10:55 PM,80.4,73.9,81,29.99,10.0,SSW,4.6,-,N/A,,Clear,200,2013-08-30 03:55:00
11:15 PM,79.2,73.4,82,29.99,10.0,SSW,3.5,-,N/A,,Clear,210,2013-08-30 04:15:00
11:35 PM,78.8,73.0,82,29.99,10.0,SW,5.8,-,N/A,,Clear,220,2013-08-30 04:35:00
11:55 PM,78.8,72.7,81,29.99,10.0,SSW,4.6,-,N/A,,Clear,210,2013-08-30 04:55:00